Time;durP1;ratioP1;P1;durP2;ratioP2;P2;SDS_P1;SDS_P2;PMS_P1;PMS_P2;Temp;Humidity;BMP_temperature;BMP_pressure;BME280_temperature;BME280_humidity;BME280_pressure;Samples;Min_cycle;Max_cycle;Signal;HPM_P1;HPM_P2
2023/10/26 00:01:41;;;;;;;;;;;;;;;8.46;100.00;99567.25;5049965;28;1405;-75
2023/10/26 00:04:07;;;;;;;;;;;;;;;8.44;100.00;99558.84;5042931;28;1215;-74
2023/10/26 00:06:32;;;;;;;;;;;;;;;8.42;100.00;99572.84;5047036;28;1253;-75
2023/10/26 00:08:57;;;;;;;;;;;;;;;8.40;100.00;99574.78;5040037;28;1303;-75
2023/10/26 00:11:22;;;;;;;;;;;;;;;8.38;100.00;99574.91;5038030;28;1906;-75
2023/10/26 00:13:47;;;;;;;;;;;;;;;8.37;100.00;99572.47;5040998;28;1342;-75
2023/10/26 00:16:13;;;;;;;;;;;;;;;8.33;100.00;99566.75;5042142;28;1288;-75
2023/10/26 00:18:38;;;;;;;;;;;;;;;8.32;100.00;99569.47;5041870;28;1219;-74
2023/10/26 00:21:03;;;;;;;;;;;;;;;8.30;100.00;99567.00;5047202;28;1451;-74
2023/10/26 00:23:28;;;;;;;;;;;;;;;8.27;100.00;99572.47;5047387;28;1344;-74
2023/10/26 00:25:54;;;;;;;;;;;;;;;8.23;100.00;99578.88;5036271;28;1336;-74
2023/10/26 00:28:19;;;;;;;;;;;;;;;8.24;100.00;99583.06;5045795;28;1073;-75
2023/10/26 00:30:44;;;;;;;;;;;;;;;8.22;100.00;99585.00;5037367;28;1973;-74
2023/10/26 00:33:09;;;;;;;;;;;;;;;8.20;100.00;99581.72;5040913;28;1250;-74
2023/10/26 00:35:34;;;;;;;;;;;;;;;8.19;100.00;99586.06;5046178;28;1211;-75
2023/10/26 00:38:00;;;;;;;;;;;;;;;8.19;100.00;99595.59;5049703;28;1201;-75
2023/10/26 00:40:25;;;;;;;;;;;;;;;8.19;100.00;99600.75;5041593;28;1335;-75
2023/10/26 00:42:50;;;;;;;;;;;;;;;8.17;100.00;99602.69;5047910;28;1094;-75
2023/10/26 00:45:15;;;;;;;;;;;;;;;8.14;100.00;99602.94;5047220;28;1319;-74
2023/10/26 00:47:41;;;;;;;;;;;;;;;8.11;100.00;99605.81;5048416;28;1312;-75
2023/10/26 00:50:06;;;;;;;;;;;;;;;8.07;100.00;99612.22;5048600;28;1894;-75
2023/10/26 00:52:34;;;;;;;;;;;;;;;8.05;100.00;99614.94;5045922;28;1434;-75
2023/10/26 00:55:00;;;;;;;;;;;;;;;8.05;100.00;99620.09;5046942;28;1414;-75
2023/10/26 00:57:26;;;;;;;;;;;;;;;8.05;100.00;99614.13;5043238;28;1260;-76
2023/10/26 00:59:51;;;;;;;;;;;;;;;8.03;100.00;99616.00;5045627;28;1255;-75
2023/10/26 01:02:18;;;;;;;;;;;;;;;8.09;100.00;99620.66;5049498;28;1446;-75
2023/10/26 01:04:44;;;;;;;;;;;;;;;8.02;100.00;99614.38;5040209;28;1179;-75
2023/10/26 01:07:09;;;;;;;;;;;;;;;8.03;100.00;99616.00;5050076;28;1291;-75
2023/10/26 01:09:35;;;;;;;;;;;;;;;8.01;100.00;99618.75;5042447;28;1426;-75
2023/10/26 01:12:01;;;;;;;;;;;;;;;7.99;100.00;99611.16;5046488;28;1901;-74
2023/10/26 01:14:27;;;;;;;;;;;;;;;8.01;100.00;99623.09;5047443;28;1513;-74
2023/10/26 01:16:52;;;;;;;;;;;;;;;7.99;100.00;99626.63;5041625;28;1383;-74
2023/10/26 01:19:18;;;;;;;;;;;;;;;7.97;100.00;99620.81;5041873;28;1369;-74
2023/10/26 01:21:50;;;;;;;;;;;;;;;7.94;100.00;99623.66;5048446;28;1208;-75
2023/10/26 01:24:15;;;;;;;;;;;;;;;7.95;100.00;99629.63;5045766;28;1503;-75
2023/10/26 01:26:41;;;;;;;;;;;;;;;7.93;100.00;99640.09;5044025;28;1212;-74
2023/10/26 01:29:06;;;;;;;;;;;;;;;7.94;100.00;99643.50;5044485;28;1335;-74
2023/10/26 01:31:31;;;;;;;;;;;;;;;7.94;100.00;99640.91;5046130;28;1934;-74
2023/10/26 01:33:57;;;;;;;;;;;;;;;7.93;100.00;99652.19;5046787;28;1580;-75
2023/10/26 01:36:22;;;;;;;;;;;;;;;7.92;100.00;99646.22;5040842;28;1240;-77
2023/10/26 01:38:47;;;;;;;;;;;;;;;7.92;100.00;99653.16;5048760;28;1261;-75
2023/10/26 01:41:12;;;;;;;;;;;;;;;7.90;100.00;99642.13;5043807;28;1374;-75
2023/10/26 01:43:37;;;;;;;;;;;;;;;7.88;100.00;99637.09;5036035;28;1277;-74
2023/10/26 01:46:03;;;;;;;;;;;;;;;7.88;100.00;99639.69;5042523;28;1599;-75
2023/10/26 01:48:28;;;;;;;;;;;;;;;7.87;100.00;99632.91;5046459;28;1610;-75
2023/10/26 01:50:53;;;;;;;;;;;;;;;7.88;100.00;99646.63;5052420;28;1897;-75
2023/10/26 01:53:21;;;;;;;;;;;;;;;7.86;100.00;99641.59;5040431;28;1662;-75
2023/10/26 01:55:46;;;;;;;;;;;;;;;7.85;100.00;99644.28;5046690;28;1377;-79
2023/10/26 01:58:11;;;;;;;;;;;;;;;7.85;100.00;99634.78;5046424;28;1306;-74
2023/10/26 02:00:37;;;;;;;;;;;;;;;7.85;100.00;99637.38;5045863;28;1201;-75
2023/10/26 02:03:02;;;;;;;;;;;;;;;7.84;100.00;99628.00;5050388;28;1327;-75
2023/10/26 02:05:27;;;;;;;;;;;;;;;7.84;100.00;99622.84;5042687;28;1126;-75
2023/10/26 02:07:52;;;;;;;;;;;;;;;7.84;100.00;99625.41;5049704;28;1204;-74
2023/10/26 02:10:18;;;;;;;;;;;;;;;7.83;100.00;99628.94;5040997;28;1980;-78
2023/10/26 02:12:43;;;;;;;;;;;;;;;7.83;100.00;99626.38;5044492;28;1734;-75
2023/10/26 02:15:09;;;;;;;;;;;;;;;7.84;100.00;99632.34;5044187;28;1348;-73
2023/10/26 02:17:34;;;;;;;;;;;;;;;7.85;100.00;99634.78;5046965;28;1391;-75
2023/10/26 02:19:59;;;;;;;;;;;;;;;7.84;100.00;99638.31;5036469;28;1560;-75
2023/10/26 02:22:25;;;;;;;;;;;;;;;7.84;100.00;99635.75;5047310;28;1437;-75
2023/10/26 02:24:50;;;;;;;;;;;;;;;7.84;100.00;99628.00;5040331;28;1309;-75
2023/10/26 02:27:15;;;;;;;;;;;;;;;7.84;100.00;99628.00;5044595;28;1129;-75
2023/10/26 02:29:40;;;;;;;;;;;;;;;7.83;100.00;99631.53;5045265;28;1100;-75
2023/10/26 02:32:06;;;;;;;;;;;;;;;7.83;100.00;99626.38;5043474;28;1983;-74
2023/10/26 02:34:32;;;;;;;;;;;;;;;7.83;100.00;99628.94;5049207;28;1082;-75
2023/10/26 02:36:59;;;;;;;;;;;;;;;7.82;100.00;99629.91;5041734;28;1270;-75
2023/10/26 02:39:24;;;;;;;;;;;;;;;7.83;100.00;99631.53;5040732;28;1200;-75
2023/10/26 02:41:50;;;;;;;;;;;;;;;7.85;100.00;99634.78;5041552;28;1190;-75
2023/10/26 02:44:15;;;;;;;;;;;;;;;7.87;100.00;99626.94;5045072;28;992;-75
2023/10/26 02:46:40;;;;;;;;;;;;;;;7.90;100.00;99627.44;5044644;28;1117;-75
2023/10/26 02:49:06;;;;;;;;;;;;;;;7.89;100.00;99625.81;5042634;28;1459;-76
2023/10/26 02:51:31;;;;;;;;;;;;;;;7.91;100.00;99626.53;5038435;28;1898;-75
2023/10/26 02:53:56;;;;;;;;;;;;;;;7.91;100.00;99621.34;5041406;28;1067;-75
2023/10/26 02:56:21;;;;;;;;;;;;;;;7.93;100.00;99616.03;5051172;28;1151;-74
2023/10/26 02:58:47;;;;;;;;;;;;;;;7.94;100.00;99620.25;5039188;28;1142;-75
2023/10/26 03:01:12;;;;;;;;;;;;;;;7.94;100.00;99613.31;5049287;28;1174;-75
2023/10/26 03:03:38;;;;;;;;;;;;;;;7.96;100.00;99613.97;5049367;28;1408;-75
2023/10/26 03:06:03;;;;;;;;;;;;;;;7.96;100.00;99606.25;5046082;28;1432;-75
2023/10/26 03:08:28;;;;;;;;;;;;;;;7.99;100.00;99618.06;5050798;28;1229;-75
2023/10/26 03:10:53;;;;;;;;;;;;;;;7.98;100.00;99606.13;5044533;28;1976;-75
2023/10/26 03:13:18;;;;;;;;;;;;;;;7.99;100.00;99615.50;5044782;28;1425;-75
2023/10/26 03:15:43;;;;;;;;;;;;;;;8.00;100.00;99614.53;5044009;28;1392;-75
2023/10/26 03:18:09;;;;;;;;;;;;;;;8.02;100.00;99619.56;5045720;28;1236;-75
2023/10/26 03:20:34;;;;;;;;;;;;;;;8.01;100.00;99623.09;5045218;28;1313;-75
2023/10/26 03:22:59;;;;;;;;;;;;;;;7.99;100.00;99621.47;5050385;28;1296;-74
2023/10/26 03:25:24;;;;;;;;;;;;;;;7.98;100.00;99617.25;5046270;28;1304;-74
2023/10/26 03:27:49;;;;;;;;;;;;;;;7.98;100.00;99619.84;5052315;28;1342;-75
2023/10/26 03:30:15;;;;;;;;;;;;;;;7.97;100.00;99612.22;5051324;28;1969;-75
2023/10/26 03:32:41;;;;;;;;;;;;;;;7.95;100.00;99609.78;5052249;28;1227;-75
2023/10/26 03:35:06;;;;;;;;;;;;;;;7.94;100.00;99608.16;5052806;28;1415;-75
2023/10/26 03:37:31;;;;;;;;;;;;;;;7.93;100.00;99606.53;5054521;28;1175;-74
2023/10/26 03:39:56;;;;;;;;;;;;;;;7.92;100.00;99604.91;5049992;28;1220;-74
2023/10/26 03:42:22;;;;;;;;;;;;;;;7.91;100.00;99598.13;5040956;28;1237;-74
2023/10/26 03:44:47;;;;;;;;;;;;;;;7.91;100.00;99598.13;5039644;28;1219;-75
2023/10/26 03:47:13;;;;;;;;;;;;;;;7.91;100.00;99603.28;5044801;28;1351;-75
2023/10/26 03:49:38;;;;;;;;;;;;;;;7.90;100.00;99605.97;5041907;28;1103;-75
2023/10/26 03:52:03;;;;;;;;;;;;;;;7.89;100.00;99604.34;5050218;28;1882;-75
2023/10/26 03:54:29;;;;;;;;;;;;;;;7.88;100.00;99607.91;5048273;28;1245;-75
2023/10/26 03:56:54;;;;;;;;;;;;;;;7.88;100.00;99598.38;5042644;28;1336;-75
2023/10/26 03:59:20;;;;;;;;;;;;;;;7.88;100.00;99603.53;5048289;28;1352;-74
2023/10/26 04:01:45;;;;;;;;;;;;;;;7.89;100.00;99610.34;5042371;28;1392;-75
2023/10/26 04:04:10;;;;;;;;;;;;;;;7.89;100.00;99610.34;5043737;28;1420;-75
2023/10/26 04:06:35;;;;;;;;;;;;;;;7.91;100.00;99613.59;5048861;28;1271;-75
2023/10/26 04:09:01;;;;;;;;;;;;;;;7.89;100.00;99610.34;5038879;28;1226;-75
2023/10/26 04:11:26;;;;;;;;;;;;;;;7.89;100.00;99607.75;5041227;28;1972;-75
2023/10/26 04:13:51;;;;;;;;;;;;;;;7.90;100.00;99606.78;5047675;28;1197;-76
2023/10/26 04:16:17;;;;;;;;;;;;;;;7.92;100.00;99604.09;5043301;28;1362;-76
2023/10/26 04:18:42;;;;;;;;;;;;;;;7.91;100.00;99603.28;5042420;28;1332;-76
2023/10/26 04:21:07;;;;;;;;;;;;;;;7.92;100.00;99594.59;5045251;28;1328;-74
2023/10/26 04:23:32;;;;;;;;;;;;;;;7.90;100.00;99591.31;5041908;28;1382;-75
2023/10/26 04:25:58;;;;;;;;;;;;;;;7.89;100.00;99600.00;5051114;28;1551;-75
2023/10/26 04:28:23;;;;;;;;;;;;;;;7.88;100.00;99589.81;5041850;28;1308;-75
2023/10/26 04:30:49;;;;;;;;;;;;;;;7.89;100.00;99594.84;5047745;28;1980;-75
2023/10/26 04:33:14;;;;;;;;;;;;;;;7.88;100.00;99592.41;5047041;28;1057;-75
2023/10/26 04:35:40;;;;;;;;;;;;;;;7.87;100.00;99591.59;5044002;28;1434;-75
2023/10/26 04:38:06;;;;;;;;;;;;;;;7.86;100.00;99584.81;5043005;28;1108;-74
2023/10/26 04:40:31;;;;;;;;;;;;;;;7.86;100.00;99592.56;5036791;28;1259;-78
2023/10/26 04:42:57;;;;;;;;;;;;;;;7.87;100.00;99591.59;5048556;28;1192;-75
2023/10/26 04:45:22;;;;;;;;;;;;;;;7.87;100.00;99596.75;5049026;28;1125;-76
2023/10/26 04:47:47;;;;;;;;;;;;;;;7.89;100.00;99594.84;5047209;28;1223;-75
2023/10/26 04:50:12;;;;;;;;;;;;;;;7.90;100.00;99606.78;5043347;28;1890;-77
2023/10/26 04:52:37;;;;;;;;;;;;;;;7.90;100.00;99593.88;5050690;28;1245;-74
2023/10/26 04:55:04;;;;;;;;;;;;;;;7.90;100.00;99596.47;5047286;28;1241;-75
2023/10/26 04:57:29;;;;;;;;;;;;;;;7.89;100.00;99600.00;5048724;28;1441;-75
2023/10/26 04:59:54;;;;;;;;;;;;;;;7.91;100.00;99587.78;5044825;28;1459;-76
2023/10/26 05:02:19;;;;;;;;;;;;;;;7.91;100.00;99592.97;5044122;28;1477;-76
2023/10/26 05:04:44;;;;;;;;;;;;;;;7.89;100.00;99579.34;5038281;28;1331;-75
2023/10/26 05:07:10;;;;;;;;;;;;;;;7.89;100.00;99584.53;5045276;28;1644;-75
2023/10/26 05:09:35;;;;;;;;;;;;;;;7.89;100.00;99589.69;5048424;28;1239;-75
2023/10/26 05:12:00;;;;;;;;;;;;;;;7.86;100.00;99595.13;5046954;28;1955;-76
2023/10/26 05:14:26;;;;;;;;;;;;;;;7.87;100.00;99596.75;5048449;28;1332;-74
2023/10/26 05:16:51;;;;;;;;;;;;;;;7.87;100.00;99596.75;5044164;28;1400;-75
2023/10/26 05:19:17;;;;;;;;;;;;;;;7.88;100.00;99589.81;5048616;28;1451;-75
2023/10/26 05:21:42;;;;;;;;;;;;;;;7.88;100.00;99589.81;5048651;28;1397;-75
2023/10/26 05:24:07;;;;;;;;;;;;;;;7.89;100.00;99594.84;5041701;28;1533;-74
2023/10/26 05:26:32;;;;;;;;;;;;;;;7.89;100.00;99594.84;5041711;28;1324;-75
2023/10/26 05:28:58;;;;;;;;;;;;;;;7.87;100.00;99601.91;5041454;28;1382;-75
2023/10/26 05:31:23;;;;;;;;;;;;;;;7.84;100.00;99596.22;5040176;28;1905;-76
2023/10/26 05:33:48;;;;;;;;;;;;;;;7.82;100.00;99588.59;5046420;28;1737;-75
2023/10/26 05:36:13;;;;;;;;;;;;;;;7.81;100.00;99593.91;5037471;28;1379;-74
2023/10/26 05:38:39;;;;;;;;;;;;;;;7.80;100.00;99590.53;5037780;28;1462;-74
2023/10/26 05:41:04;;;;;;;;;;;;;;;7.77;100.00;99579.66;5045945;28;1267;-75
2023/10/26 05:43:29;;;;;;;;;;;;;;;7.74;100.00;99591.03;5042837;28;1390;-75
2023/10/26 05:46:01;;;;;;;;;;;;;;;7.71;100.00;99581.00;5044412;28;1255;-74
2023/10/26 05:48:26;;;;;;;;;;;;;;;7.70;100.00;99579.38;5045767;28;1410;-75
2023/10/26 05:50:51;;;;;;;;;;;;;;;7.68;100.00;99574.38;5049604;28;1890;-76
2023/10/26 05:53:16;;;;;;;;;;;;;;;7.68;100.00;99576.13;5040901;28;1316;-75
2023/10/26 05:55:41;;;;;;;;;;;;;;;7.69;100.00;99577.75;5041324;28;2348;-75
2023/10/26 05:58:09;;;;;;;;;;;;;;;7.68;100.00;99586.44;5041243;28;1344;-75
2023/10/26 06:00:34;;;;;;;;;;;;;;;7.70;100.00;99594.88;5049796;28;1272;-75
2023/10/26 06:02:59;;;;;;;;;;;;;;;7.71;100.00;99581.81;5046829;28;1577;-75
2023/10/26 06:05:24;;;;;;;;;;;;;;;7.70;100.00;99590.53;5041548;28;1299;-75
2023/10/26 06:07:50;;;;;;;;;;;;;;;7.71;100.00;99591.34;5045033;28;1055;-74
2023/10/26 06:10:15;;;;;;;;;;;;;;;7.73;100.00;99594.59;5044694;28;1965;-75
2023/10/26 06:12:40;;;;;;;;;;;;;;;7.73;100.00;99589.41;5051253;28;1312;-75
2023/10/26 06:15:06;;;;;;;;;;;;;;;7.74;100.00;99585.88;5045702;28;1401;-75
2023/10/26 06:17:31;;;;;;;;;;;;;;;7.72;100.00;99592.97;5039752;28;1564;-74
2023/10/26 06:19:56;;;;;;;;;;;;;;;7.73;100.00;99592.00;5041776;28;1239;-75
2023/10/26 06:22:21;;;;;;;;;;;;;;;7.74;100.00;99585.88;5042067;28;1362;-76
2023/10/26 06:24:46;;;;;;;;;;;;;;;7.76;100.00;99586.59;5039334;28;1655;-74
2023/10/26 06:27:12;;;;;;;;;;;;;;;7.74;100.00;99585.88;5036485;28;1106;-75
2023/10/26 06:29:37;;;;;;;;;;;;;;;7.73;100.00;99579.09;5039789;28;1175;-74
2023/10/26 06:32:02;;;;;;;;;;;;;;;7.72;100.00;99582.63;5036533;28;1906;-75
2023/10/26 06:34:28;;;;;;;;;;;;;;;7.72;100.00;99577.47;5041396;28;1218;-75
2023/10/26 06:36:53;;;;;;;;;;;;;;;7.72;100.00;99582.63;5040616;28;964;-75
2023/10/26 06:39:18;;;;;;;;;;;;;;;7.71;100.00;99586.19;5043124;28;1251;-75
2023/10/26 06:41:43;;;;;;;;;;;;;;;7.68;100.00;99589.00;5051595;28;1502;-75
2023/10/26 06:44:08;;;;;;;;;;;;;;;7.66;100.00;99583.19;5047316;28;1364;-75
2023/10/26 06:46:33;;;;;;;;;;;;;;;7.65;100.00;99571.25;5046998;28;1247;-75
2023/10/26 06:48:59;;;;;;;;;;;;;;;7.62;100.00;99584.41;5050724;28;1351;-75
2023/10/26 06:51:24;;;;;;;;;;;;;;;7.63;100.00;99581.72;5046302;28;1893;-75
2023/10/26 06:53:49;;;;;;;;;;;;;;;7.63;100.00;99588.63;5047400;28;1372;-74
2023/10/26 06:56:14;;;;;;;;;;;;;;;7.65;100.00;99584.16;5041519;28;1389;-75
2023/10/26 06:58:40;;;;;;;;;;;;;;;7.64;100.00;99595.41;5045299;28;1264;-75
2023/10/26 07:01:08;;;;;;;;;;;;;;;7.63;100.00;99594.59;5045473;28;1498;-76
2023/10/26 07:03:34;;;;;;;;;;;;;;;7.66;100.00;99590.94;5047553;28;1399;-74
2023/10/26 07:06:02;;;;;;;;;;;;;;;7.65;100.00;99581.56;5047926;28;1212;-76
2023/10/26 07:08:27;;;;;;;;;;;;;;;7.65;100.00;99581.56;5053039;28;1528;-74
2023/10/26 07:10:54;;;;;;;;;;;;;;;7.65;100.00;99581.56;5053631;28;1890;-75
2023/10/26 07:13:19;;;;;;;;;;;;;;;7.64;100.00;99587.69;5045366;28;1320;-74
2023/10/26 07:15:44;;;;;;;;;;;;;;;7.63;100.00;99584.28;5044513;28;1234;-74
2023/10/26 07:18:10;;;;;;;;;;;;;;;7.62;100.00;99587.78;5049303;28;1332;-75
2023/10/26 07:20:36;;;;;;;;;;;;;;;7.63;100.00;99591.22;5049622;28;1223;-74
2023/10/26 07:23:01;;;;;;;;;;;;;;;7.63;100.00;99583.47;5050742;28;1152;-75
2023/10/26 07:25:27;;;;;;;;;;;;;;;7.58;100.00;99580.50;5040150;28;1222;-75
2023/10/26 07:27:52;;;;;;;;;;;;;;;7.56;100.00;99579.78;5046106;28;1232;-75
2023/10/26 07:30:17;;;;;;;;;;;;;;;7.54;100.00;99572.19;5047126;28;1969;-74
2023/10/26 07:32:43;;;;;;;;;;;;;;;7.53;100.00;99578.31;5038435;28;1239;-75
2023/10/26 07:35:08;;;;;;;;;;;;;;;7.55;100.00;99580.75;5042486;28;1228;-75
2023/10/26 07:37:33;;;;;;;;;;;;;;;7.56;100.00;99590.09;5045591;28;1295;-75
2023/10/26 07:39:58;;;;;;;;;;;;;;;7.57;100.00;99584.00;5039989;28;1338;-74
2023/10/26 07:42:23;;;;;;;;;;;;;;;7.55;100.00;99581.56;5052283;28;1494;-75
2023/10/26 07:44:51;;;;;;;;;;;;;;;7.56;100.00;99587.53;5040057;28;1355;-75
2023/10/26 07:47:17;;;;;;;;;;;;;;;7.57;100.00;99576.25;5044744;28;1355;-75
2023/10/26 07:49:42;;;;;;;;;;;;;;;7.56;100.00;99572.06;5047941;28;1557;-75
2023/10/26 07:52:07;;;;;;;;;;;;;;;7.55;100.00;99576.41;5049792;28;1897;-75
2023/10/26 07:54:32;;;;;;;;;;;;;;;7.56;100.00;99567.69;5050066;28;1275;-75
2023/10/26 07:56:57;;;;;;;;;;;;;;;7.56;100.00;99574.63;5051638;28;1263;-75
2023/10/26 07:59:23;;;;;;;;;;;;;;;7.52;100.00;99570.72;5048758;28;1224;-75
2023/10/26 08:01:48;;;;;;;;;;;;;;;7.52;100.00;99576.69;5051581;28;1245;-75
2023/10/26 08:04:13;;;;;;;;;;;;;;;7.54;100.00;99585.09;5047240;28;1464;-74
2023/10/26 08:06:38;;;;;;;;;;;;;;;7.56;100.00;99597.84;5049922;28;1301;-75
2023/10/26 08:09:05;;;;;;;;;;;;;;;7.58;100.00;99593.38;5050590;28;1326;-76
2023/10/26 08:11:30;;;;;;;;;;;;;;;7.60;100.00;99594.06;5047367;28;1898;-74
2023/10/26 08:13:55;;;;;;;;;;;;;;;7.58;100.00;99596.78;5055112;28;1240;-75
2023/10/26 08:16:22;;;;;;;;;;;;;;;7.62;100.00;99612.78;5048319;28;1372;-74
2023/10/26 08:18:47;;;;;;;;;;;;;;;7.62;100.00;99602.47;5049896;28;1227;-75
2023/10/26 08:21:13;;;;;;;;;;;;;;;7.61;100.00;99606.00;5045159;28;1307;-74
2023/10/26 08:23:38;;;;;;;;;;;;;;;7.61;100.00;99614.56;5046880;28;1312;-75
2023/10/26 08:26:07;;;;;;;;;;;;;;;7.65;100.00;99612.53;5041417;28;1086;-75
2023/10/26 08:28:33;;;;;;;;;;;;;;;7.68;100.00;99613.09;5047329;28;1370;-75
2023/10/26 08:31:00;;;;;;;;;;;;;;;7.72;100.00;99611.03;5045479;28;1961;-75
2023/10/26 08:33:26;;;;;;;;;;;;;;;7.74;100.00;99611.69;5040632;28;1413;-75
2023/10/26 08:35:51;;;;;;;;;;;;;;;7.78;100.00;99607.91;5041835;28;1592;-75
2023/10/26 08:38:16;;;;;;;;;;;;;;;7.83;100.00;99613.47;5040383;28;1078;-74
2023/10/26 08:40:48;;;;;;;;;;;;;;;7.86;100.00;99610.63;5044184;28;1572;-75
2023/10/26 08:43:14;;;;;;;;;;;;;;;7.91;100.00;99607.59;5044652;28;1376;-75
2023/10/26 08:45:41;;;;;;;;;;;;;;;7.96;100.00;99611.41;5045160;28;1466;-75
2023/10/26 08:48:07;;;;;;;;;;;;;;;8.00;100.00;99611.94;5042571;28;1529;-75
2023/10/26 08:50:32;;;;;;;;;;;;;;;8.06;100.00;99608.00;5044279;28;1898;-75
2023/10/26 08:52:57;;;;;;;;;;;;;;;8.10;100.00;99606.78;5050583;28;1347;-74
2023/10/26 08:55:22;;;;;;;;;;;;;;;8.14;100.00;99603.78;5051128;28;1225;-74
2023/10/26 08:57:51;;;;;;;;;;;;;;;8.19;100.00;99616.25;5048495;28;1260;-74
2023/10/26 09:00:18;;;;;;;;;;;;;;;8.22;100.00;99631.50;5055124;28;1228;-75
2023/10/26 09:02:43;;;;;;;;;;;;;;;8.26;100.00;99632.84;5051807;28;1216;-75
2023/10/26 09:05:10;;;;;;;;;;;;;;;8.29;100.00;99642.06;5049799;28;1529;-75
2023/10/26 09:07:35;;;;;;;;;;;;;;;8.29;100.00;99637.72;5041539;28;1236;-75
2023/10/26 09:10:01;;;;;;;;;;;;;;;8.28;100.00;99627.53;5045247;28;1219;-75
2023/10/26 09:12:26;;;;;;;;;;;;;;;8.28;100.00;99623.19;5042919;28;1973;-75
2023/10/26 09:14:58;;;;;;;;;;;;;;;8.28;100.00;99617.22;5048261;28;1334;-75
2023/10/26 09:17:27;;;;;;;;;;;;;;;8.29;100.00;99621.41;5044436;28;1204;-75
2023/10/26 09:19:52;;;;;;;;;;;;;;;8.30;100.00;99626.44;5047041;28;1250;-75
2023/10/26 09:22:18;;;;;;;;;;;;;;;8.33;100.00;99623.59;5040904;28;1299;-76
2023/10/26 09:24:43;;;;;;;;;;;;;;;8.35;100.00;99624.25;5040557;28;1296;-75
2023/10/26 09:27:16;;;;;;;;;;;;;;;8.37;100.00;99621.53;5048347;28;1255;-74
2023/10/26 09:29:42;;;;;;;;;;;;;;;8.39;100.00;99623.03;5040329;28;1228;-74
2023/10/26 09:32:07;;;;;;;;;;;;;;;8.42;100.00;99620.16;5046529;28;1894;-76
2023/10/26 09:34:43;;;;;;;;;;;;;;;8.41;100.00;99610.78;5046838;28;1418;-75
2023/10/26 09:37:09;;;;;;;;;;;;;;;8.38;100.00;99599.94;5043391;28;1379;-75
2023/10/26 09:39:38;;;;;;;;;;;;;;;8.39;100.00;99602.38;5045661;28;1576;-75
2023/10/26 09:42:05;;;;;;;;;;;;;;;8.42;100.00;99596.09;5041648;28;1258;-75
2023/10/26 09:44:31;;;;;;;;;;;;;;;8.42;100.00;99591.75;5039688;28;1274;-75
2023/10/26 09:46:57;;;;;;;;;;;;;;;8.43;100.00;99603.75;5033649;28;1424;-75
2023/10/26 09:49:22;;;;;;;;;;;;;;;8.43;100.00;99593.41;5040942;28;1148;-75
2023/10/26 09:51:48;;;;;;;;;;;;;;;8.44;100.00;99600.19;5047546;28;1948;-75
2023/10/26 09:54:14;;;;;;;;;;;;;;;8.46;100.00;99587.94;5046849;28;1143;-76
2023/10/26 09:56:41;;;;;;;;;;;;;;;8.44;100.00;99581.28;5052173;28;1146;-75
2023/10/26 09:59:07;;;;;;;;;;;;;;;8.42;100.00;99581.41;5050001;28;1528;-76
2023/10/26 10:01:36;;;;;;;;;;;;;;;8.44;100.00;99579.53;5055182;28;1181;-75
2023/10/26 10:04:02;;;;;;;;;;;;;;;8.45;100.00;99575.16;5046628;28;1314;-75
2023/10/26 10:06:42;;;;;;;;;;;;;;;8.45;100.00;99583.72;5045233;28;1224;-75
2023/10/26 10:09:07;;;;;;;;;;;;;;;8.47;100.00;99589.56;5039347;28;1321;-75
2023/10/26 10:11:33;;;;;;;;;;;;;;;8.52;100.00;99581.38;5048855;28;1941;-75
2023/10/26 10:13:58;;;;;;;;;;;;;;;8.55;100.00;99590.63;5047619;28;1270;-75
2023/10/26 10:16:35;;;;;;;;;;;;;;;8.56;100.00;99587.09;5043076;28;1314;-75
2023/10/26 10:19:17;;;;;;;;;;;;;;;8.60;100.00;99598.75;5044560;28;1252;-76
2023/10/26 10:21:42;;;;;;;;;;;;;;;8.60;100.00;99581.50;5042822;28;1353;-75
2023/10/26 10:24:07;;;;;;;;;;;;;;;8.62;100.00;99576.19;5044852;28;1386;-75
2023/10/26 10:26:51;;;;;;;;;;;;;;;8.63;100.00;99585.56;5046484;28;1294;-75
2023/10/26 10:29:21;;;;;;;;;;;;;;;8.66;100.00;99572.34;5041481;28;1537;-75
2023/10/26 10:31:46;;;;;;;;;;;;;;;8.70;100.00;99571.09;5045730;28;1894;-74
2023/10/26 10:34:14;;;;;;;;;;;;;;;8.70;100.00;99574.50;5049293;28;1346;-75
2023/10/26 10:37:05;;;;;;;;;;;;;;;8.71;100.00;99577.88;5038882;28;1174;-75
2023/10/26 10:39:31;;;;;;;;;;;;;;;8.75;100.00;99574.06;5045209;28;1291;-74
2023/10/26 10:41:56;;;;;;;;;;;;;;;8.74;100.00;99568.09;5041636;28;1169;-77
2023/10/26 10:44:22;;;;;;;;;;;;;;;8.75;100.00;99567.13;5040912;28;1426;-75
2023/10/26 10:46:47;;;;;;;;;;;;;;;8.77;100.00;99565.22;5036394;28;1360;-76
2023/10/26 10:49:14;;;;;;;;;;;;;;;8.79;100.00;99562.50;5041660;28;1435;-74
2023/10/26 10:51:41;;;;;;;;;;;;;;;8.83;100.00;99556.09;5045239;28;1973;-77
2023/10/26 10:54:07;;;;;;;;;;;;;;;8.85;100.00;99561.91;5041612;28;1107;-75
2023/10/26 10:56:36;;;;;;;;;;;;;;;8.87;100.00;99565.16;5043191;28;1497;-76
2023/10/26 10:59:14;;;;;;;;;;;;;;;8.90;100.00;99559.69;5042376;28;1306;-76
2023/10/26 11:01:39;;;;;;;;;;;;;;;8.92;100.00;99556.97;5061545;28;1353;-77
2023/10/26 11:04:06;;;;;;;;;;;;;;;8.94;100.00;99545.50;5042842;28;1450;-76
2023/10/26 11:06:31;;;;;;;;;;;;;;;8.99;100.00;99532.94;5039393;28;1219;-76
2023/10/26 11:08:56;;;;;;;;;;;;;;;9.02;100.00;99531.88;5048477;28;1336;-77
2023/10/26 11:11:28;;;;;;;;;;;;;;;9.02;100.00;99531.88;5044236;28;1898;-76
2023/10/26 11:14:06;;;;;;;;;;;;;;;9.00;100.00;99526.84;5044705;28;1341;-76
2023/10/26 11:16:31;;;;;;;;;;;;;;;9.00;100.00;99544.09;5042748;28;1228;-76
2023/10/26 11:18:57;;;;;;;;;;;;;;;9.01;100.00;99531.06;5046979;28;1367;-76
2023/10/26 11:21:22;;;;;;;;;;;;;;;9.08;100.00;99525.28;5044433;28;1196;-76
2023/10/26 11:23:51;;;;;;;;;;;;;;;9.15;100.00;99521.16;5045931;28;1249;-76
2023/10/26 11:26:16;;;;;;;;;;;;;;;9.15;100.00;99523.72;5040916;28;1292;-76
2023/10/26 11:28:41;;;;;;;;;;;;;;;9.15;100.00;99515.97;5042871;28;1332;-76
2023/10/26 11:31:06;;;;;;;;;;;;;;;9.17;100.00;99529.56;5050656;28;1918;-75
2023/10/26 11:33:48;;;;;;;;;;;;;;;9.18;100.00;99531.22;5035475;28;1356;-75
2023/10/26 11:36:13;;;;;;;;;;;;;;;9.20;100.00;99539.63;5040630;28;1226;-75
2023/10/26 11:38:46;;;;;;;;;;;;;;;9.20;100.00;99542.22;5042454;28;1199;-76
2023/10/26 11:41:18;;;;;;;;;;;;;;;9.22;100.00;99542.88;5048384;28;1408;-75
2023/10/26 11:43:43;;;;;;;;;;;;;;;9.21;100.00;99541.25;5041966;28;1232;-75
2023/10/26 11:46:09;;;;;;;;;;;;;;;9.23;100.00;99536.72;5048296;28;1485;-75
2023/10/26 11:48:34;;;;;;;;;;;;;;;9.23;100.00;99539.31;5051724;28;1383;-74
2023/10/26 11:50:59;;;;;;;;;;;;;;;9.24;100.00;99530.63;5045850;28;1889;-75
2023/10/26 11:53:26;;;;;;;;;;;;;;;9.20;100.00;99539.63;5042227;28;1266;-77
2023/10/26 11:55:51;;;;;;;;;;;;;;;9.19;100.00;99548.34;5038225;28;1471;-75
2023/10/26 11:58:17;;;;;;;;;;;;;;;9.19;100.00;99548.34;5050330;28;1287;-76
2023/10/26 12:00:43;;;;;;;;;;;;;;;9.20;100.00;99555.16;5039622;28;1289;-76
2023/10/26 12:03:09;;;;;;;;;;;;;;;9.20;100.00;99547.38;5042954;28;1228;-75
2023/10/26 12:05:34;;;;;;;;;;;;;;;9.23;100.00;99544.50;5039351;28;1148;-75
2023/10/26 12:08:00;;;;;;;;;;;;;;;9.29;100.00;99538.75;5035317;28;1549;-75
2023/10/26 12:10:25;;;;;;;;;;;;;;;9.25;100.00;99537.41;5044225;28;1898;-75
2023/10/26 12:12:50;;;;;;;;;;;;;;;9.25;100.00;99538.22;5051045;28;1755;-75
2023/10/26 12:15:15;;;;;;;;;;;;;;;9.28;100.00;99529.34;5053985;28;1284;-75
2023/10/26 12:17:41;;;;;;;;;;;;;;;9.31;100.00;99521.28;5041468;28;1345;-75
2023/10/26 12:20:08;;;;;;;;;;;;;;;9.31;100.00;99516.13;5044591;28;1471;-76
2023/10/26 12:22:33;;;;;;;;;;;;;;;9.34;100.00;99510.63;5045647;28;1416;-75
2023/10/26 12:24:59;;;;;;;;;;;;;;;9.38;100.00;99506.78;5046883;28;1343;-75
2023/10/26 12:27:24;;;;;;;;;;;;;;;9.40;100.00;99510.03;5042880;28;1364;-75
2023/10/26 12:29:49;;;;;;;;;;;;;;;9.42;100.00;99509.91;5046324;28;1442;-75
2023/10/26 12:32:15;;;;;;;;;;;;;;;9.43;100.00;99504.56;5045084;28;1906;-75
2023/10/26 12:34:40;;;;;;;;;;;;;;;9.44;100.00;99506.19;5051016;28;1078;-76
2023/10/26 12:37:06;;;;;;;;;;;;;;;9.44;100.00;99497.63;5047990;28;1134;-76
2023/10/26 12:39:31;;;;;;;;;;;;;;;9.43;100.00;99501.16;5051466;28;1094;-76
2023/10/26 12:41:56;;;;;;;;;;;;;;;9.37;100.00;99505.16;5047092;28;1219;-75
2023/10/26 12:44:24;;;;;;;;;;;;;;;9.38;100.00;99495.63;5042837;28;1330;-75
2023/10/26 12:46:49;;;;;;;;;;;;;;;9.40;100.00;99489.31;5044582;28;1204;-75
2023/10/26 12:49:14;;;;;;;;;;;;;;;9.39;100.00;99498.06;5049571;28;1460;-75
2023/10/26 12:51:39;;;;;;;;;;;;;;;9.32;100.00;99491.88;5047788;28;1918;-76